Hoko, Washington
Current Conditions -  °F | °C
As of 2:53 PM on Tuesday 27 Jan 2015 (Local Time) from KUIL Reporting Station
Overcast Overcast  
Wind Chill: 51°   Ceiling: 2400
Heat Index: 51°   Visibility: 8mi
Dew Point: 42°   Wind: 5mph
Humidity: 71%   Direction: 310°NW
Pressure: 30.14"   Gusts: NA
Location:  48.1832°N, 124.531°W
Report Text: KUIL 272253Z AUTO 31004KT 8SM OVC024 11/06 A3014 RMK AO2 SLP206 T01060056
Loading
Personal Weather Stations






























Interactive Weather Map New forecast layout! Learn more

10-Day Weather Forecast

Advertisements
Track Severe Weather on mobile